sensor_id;sensor_type;location;lat;lon;timestamp;temperature;humidity
254;DHT22;590;48.772;8.846;2022-09-12T00:01:04;13.00;99.90
254;DHT22;590;48.772;8.846;2022-09-12T00:03:32;13.00;99.90
254;DHT22;590;48.772;8.846;2022-09-12T00:06:02;13.00;99.90
254;DHT22;590;48.772;8.846;2022-09-12T00:08:33;13.00;99.90
254;DHT22;590;48.772;8.846;2022-09-12T00:11:05;13.00;99.90
254;DHT22;590;48.772;8.846;2022-09-12T00:13:34;13.00;99.90
254;DHT22;590;48.772;8.846;2022-09-12T00:16:13;13.00;99.90
254;DHT22;590;48.772;8.846;2022-09-12T00:18:42;13.00;99.90
254;DHT22;590;48.772;8.846;2022-09-12T00:21:13;13.00;99.90
254;DHT22;590;48.772;8.846;2022-09-12T00:23:41;13.00;99.90
254;DHT22;590;48.772;8.846;2022-09-12T00:26:09;12.90;99.50
254;DHT22;590;48.772;8.846;2022-09-12T00:28:38;12.90;99.80
254;DHT22;590;48.772;8.846;2022-09-12T00:31:10;12.90;99.50
254;DHT22;590;48.772;8.846;2022-09-12T00:33:39;12.90;99.30
254;DHT22;590;48.772;8.846;2022-09-12T00:36:09;12.90;99.20
254;DHT22;590;48.772;8.846;2022-09-12T00:38:37;12.90;99.20
254;DHT22;590;48.772;8.846;2022-09-12T00:41:13;12.80;99.90
254;DHT22;590;48.772;8.846;2022-09-12T00:43:44;12.90;99.90
254;DHT22;590;48.772;8.846;2022-09-12T00:49:03;12.70;99.60
254;DHT22;590;48.772;8.846;2022-09-12T00:51:33;12.70;99.70
254;DHT22;590;48.772;8.846;2022-09-12T00:54:07;12.70;99.90
254;DHT22;590;48.772;8.846;2022-09-12T00:56:36;12.70;99.90
254;DHT22;590;48.772;8.846;2022-09-12T00:59:08;12.70;99.90
254;DHT22;590;48.772;8.846;2022-09-12T01:01:40;12.60;98.20
254;DHT22;590;48.772;8.846;2022-09-12T01:04:10;12.50;97.40
254;DHT22;590;48.772;8.846;2022-09-12T01:06:41;12.40;97.70
254;DHT22;590;48.772;8.846;2022-09-12T01:09:12;12.40;98.40
254;DHT22;590;48.772;8.846;2022-09-12T01:11:41;12.30;99.00
254;DHT22;590;48.772;8.846;2022-09-12T01:14:12;12.30;99.20
254;DHT22;590;48.772;8.846;2022-09-12T01:16:42;12.30;99.10
254;DHT22;590;48.772;8.846;2022-09-12T01:19:46;12.30;99.90
254;DHT22;590;48.772;8.846;2022-09-12T01:22:41;12.40;99.90
254;DHT22;590;48.772;8.846;2022-09-12T01:25:18;12.40;99.90
254;DHT22;590;48.772;8.846;2022-09-12T01:28:15;12.40;99.70
254;DHT22;590;48.772;8.846;2022-09-12T01:30:53;12.40;99.50
254;DHT22;590;48.772;8.846;2022-09-12T01:33:38;12.40;99.60
254;DHT22;590;48.772;8.846;2022-09-12T01:36:23;12.40;98.80
254;DHT22;590;48.772;8.846;2022-09-12T01:38:59;12.40;98.30
254;DHT22;590;48.772;8.846;2022-09-12T01:41:30;12.30;97.90
254;DHT22;590;48.772;8.846;2022-09-12T01:44:03;12.30;97.90
254;DHT22;590;48.772;8.846;2022-09-12T01:46:42;12.20;97.60
254;DHT22;590;48.772;8.846;2022-09-12T01:49:17;12.20;97.70
254;DHT22;590;48.772;8.846;2022-09-12T01:51:53;12.10;97.90
254;DHT22;590;48.772;8.846;2022-09-12T01:54:28;12.00;98.00
254;DHT22;590;48.772;8.846;2022-09-12T01:57:00;12.00;99.10
254;DHT22;590;48.772;8.846;2022-09-12T01:59:32;12.10;99.30
254;DHT22;590;48.772;8.846;2022-09-12T02:02:05;12.10;99.80
254;DHT22;590;48.772;8.846;2022-09-12T02:04:42;12.10;99.90
254;DHT22;590;48.772;8.846;2022-09-12T02:07:18;12.10;99.90
254;DHT22;590;48.772;8.846;2022-09-12T02:09:50;12.20;99.90
254;DHT22;590;48.772;8.846;2022-09-12T02:12:23;12.20;99.90
254;DHT22;590;48.772;8.846;2022-09-12T02:14:57;12.10;99.00
254;DHT22;590;48.772;8.846;2022-09-12T02:17:29;12.10;99.10
254;DHT22;590;48.772;8.846;2022-09-12T02:20:02;12.00;99.00
254;DHT22;590;48.772;8.846;2022-09-12T02:22:34;12.00;99.50
254;DHT22;590;48.772;8.846;2022-09-12T02:25:06;12.00;99.30
254;DHT22;590;48.772;8.846;2022-09-12T02:27:39;12.00;98.60
254;DHT22;590;48.772;8.846;2022-09-12T02:30:08;11.90;98.10
254;DHT22;590;48.772;8.846;2022-09-12T02:32:43;11.80;97.80
254;DHT22;590;48.772;8.846;2022-09-12T02:35:21;11.80;98.00
254;DHT22;590;48.772;8.846;2022-09-12T02:37:56;11.70;97.90
254;DHT22;590;48.772;8.846;2022-09-12T02:40:27;11.70;98.10
254;DHT22;590;48.772;8.846;2022-09-12T02:42:55;11.70;98.30
254;DHT22;590;48.772;8.846;2022-09-12T02:45:23;11.60;98.30
254;DHT22;590;48.772;8.846;2022-09-12T02:47:57;11.60;98.90
254;DHT22;590;48.772;8.846;2022-09-12T02:50:26;11.60;99.90
254;DHT22;590;48.772;8.846;2022-09-12T02:52:55;11.60;99.90
254;DHT22;590;48.772;8.846;2022-09-12T02:55:25;11.70;99.90
254;DHT22;590;48.772;8.846;2022-09-12T02:57:56;11.70;99.90
254;DHT22;590;48.772;8.846;2022-09-12T03:00:24;11.80;99.90
254;DHT22;590;48.772;8.846;2022-09-12T03:03:06;11.80;99.20
254;DHT22;590;48.772;8.846;2022-09-12T03:05:42;11.80;99.20
254;DHT22;590;48.772;8.846;2022-09-12T03:08:24;11.80;99.00
254;DHT22;590;48.772;8.846;2022-09-12T03:11:18;11.70;98.40
254;DHT22;590;48.772;8.846;2022-09-12T03:13:54;11.60;97.90
254;DHT22;590;48.772;8.846;2022-09-12T03:16:29;11.50;97.60
254;DHT22;590;48.772;8.846;2022-09-12T03:19:08;11.50;97.90
254;DHT22;590;48.772;8.846;2022-09-12T03:21:45;11.50;98.90
254;DHT22;590;48.772;8.846;2022-09-12T03:24:23;11.50;99.20
254;DHT22;590;48.772;8.846;2022-09-12T03:26:55;11.50;99.80
254;DHT22;590;48.772;8.846;2022-09-12T03:29:25;11.50;99.90
254;DHT22;590;48.772;8.846;2022-09-12T03:31:55;11.60;99.90
254;DHT22;590;48.772;8.846;2022-09-12T03:34:26;11.50;99.10
254;DHT22;590;48.772;8.846;2022-09-12T03:36:54;11.50;99.40
254;DHT22;590;48.772;8.846;2022-09-12T03:39:23;11.50;99.10
254;DHT22;590;48.772;8.846;2022-09-12T03:41:52;11.40;98.80
254;DHT22;590;48.772;8.846;2022-09-12T03:44:21;11.40;98.50
254;DHT22;590;48.772;8.846;2022-09-12T03:46:49;11.30;97.80
254;DHT22;590;48.772;8.846;2022-09-12T03:49:17;11.20;97.90
254;DHT22;590;48.772;8.846;2022-09-12T03:51:46;11.20;98.00
254;DHT22;590;48.772;8.846;2022-09-12T03:54:14;11.10;97.80
254;DHT22;590;48.772;8.846;2022-09-12T03:56:42;11.10;98.10
254;DHT22;590;48.772;8.846;2022-09-12T03:59:10;11.00;98.30
254;DHT22;590;48.772;8.846;2022-09-12T04:01:38;11.00;98.40
254;DHT22;590;48.772;8.846;2022-09-12T04:04:07;10.90;98.60
254;DHT22;590;48.772;8.846;2022-09-12T04:06:35;10.90;99.20
254;DHT22;590;48.772;8.846;2022-09-12T04:09:05;11.00;99.90
254;DHT22;590;48.772;8.846;2022-09-12T04:11:33;11.00;99.70
254;DHT22;590;48.772;8.846;2022-09-12T04:14:01;11.00;99.90
254;DHT22;590;48.772;8.846;2022-09-12T04:16:29;11.00;99.90
254;DHT22;590;48.772;8.846;2022-09-12T04:18:58;11.10;99.90
254;DHT22;590;48.772;8.846;2022-09-12T04:21:26;11.10;99.70
254;DHT22;590;48.772;8.846;2022-09-12T04:23:54;11.10;99.90
254;DHT22;590;48.772;8.846;2022-09-12T04:26:23;11.10;99.70
254;DHT22;590;48.772;8.846;2022-09-12T04:28:53;11.10;99.30
254;DHT22;590;48.772;8.846;2022-09-12T04:31:23;11.00;99.30
254;DHT22;590;48.772;8.846;2022-09-12T04:33:55;11.00;98.90
254;DHT22;590;48.772;8.846;2022-09-12T04:36:24;10.90;98.90
254;DHT22;590;48.772;8.846;2022-09-12T04:38:53;10.90;98.80
254;DHT22;590;48.772;8.846;2022-09-12T04:41:24;10.90;98.90
254;DHT22;590;48.772;8.846;2022-09-12T04:43:54;10.90;99.60
254;DHT22;590;48.772;8.846;2022-09-12T04:46:25;11.00;99.90
254;DHT22;590;48.772;8.846;2022-09-12T04:48:53;11.00;99.90
254;DHT22;590;48.772;8.846;2022-09-12T04:51:24;11.10;99.90
254;DHT22;590;48.772;8.846;2022-09-12T04:53:55;11.10;99.60
254;DHT22;590;48.772;8.846;2022-09-12T04:56:25;11.00;98.80
254;DHT22;590;48.772;8.846;2022-09-12T04:58:56;11.00;98.80
254;DHT22;590;48.772;8.846;2022-09-12T05:01:25;10.90;98.40
254;DHT22;590;48.772;8.846;2022-09-12T05:03:54;11.00;99.30
254;DHT22;590;48.772;8.846;2022-09-12T05:06:25;11.00;99.50
254;DHT22;590;48.772;8.846;2022-09-12T05:08:53;11.00;98.80
254;DHT22;590;48.772;8.846;2022-09-12T05:11:26;10.90;98.10
254;DHT22;590;48.772;8.846;2022-09-12T05:14:15;10.90;97.80
254;DHT22;590;48.772;8.846;2022-09-12T05:16:43;10.80;97.90
254;DHT22;590;48.772;8.846;2022-09-12T05:19:15;10.90;98.50
254;DHT22;590;48.772;8.846;2022-09-12T05:21:43;10.90;99.00
254;DHT22;590;48.772;8.846;2022-09-12T05:24:11;10.90;98.90
254;DHT22;590;48.772;8.846;2022-09-12T05:26:41;11.00;99.80
254;DHT22;590;48.772;8.846;2022-09-12T05:29:09;11.00;99.70
254;DHT22;590;48.772;8.846;2022-09-12T05:31:39;11.20;99.60
254;DHT22;590;48.772;8.846;2022-09-12T05:34:07;11.30;99.20
254;DHT22;590;48.772;8.846;2022-09-12T05:36:36;11.40;99.40
254;DHT22;590;48.772;8.846;2022-09-12T05:39:04;11.60;99.50
254;DHT22;590;48.772;8.846;2022-09-12T05:41:33;11.70;99.00
254;DHT22;590;48.772;8.846;2022-09-12T05:44:04;11.90;98.20
254;DHT22;590;48.772;8.846;2022-09-12T05:46:36;12.10;98.00
254;DHT22;590;48.772;8.846;2022-09-12T05:49:06;12.20;97.40
254;DHT22;590;48.772;8.846;2022-09-12T05:51:36;12.40;96.50
254;DHT22;590;48.772;8.846;2022-09-12T05:54:06;12.70;95.00
254;DHT22;590;48.772;8.846;2022-09-12T05:56:37;12.80;93.70
254;DHT22;590;48.772;8.846;2022-09-12T05:59:10;13.00;93.10
254;DHT22;590;48.772;8.846;2022-09-12T06:01:38;13.20;92.40
254;DHT22;590;48.772;8.846;2022-09-12T06:04:07;13.40;91.50
254;DHT22;590;48.772;8.846;2022-09-12T06:06:37;13.60;90.00
254;DHT22;590;48.772;8.846;2022-09-12T06:09:05;13.90;88.30
254;DHT22;590;48.772;8.846;2022-09-12T06:11:35;14.10;85.70
254;DHT22;590;48.772;8.846;2022-09-12T06:14:03;14.20;82.60
254;DHT22;590;48.772;8.846;2022-09-12T06:16:33;14.30;82.60
254;DHT22;590;48.772;8.846;2022-09-12T06:19:04;14.40;81.20
254;DHT22;590;48.772;8.846;2022-09-12T06:21:33;14.50;78.70
254;DHT22;590;48.772;8.846;2022-09-12T06:24:03;14.60;80.20
254;DHT22;590;48.772;8.846;2022-09-12T06:26:33;14.80;77.60
254;DHT22;590;48.772;8.846;2022-09-12T06:29:01;14.80;78.50
254;DHT22;590;48.772;8.846;2022-09-12T06:31:30;14.90;77.50
254;DHT22;590;48.772;8.846;2022-09-12T06:34:02;15.00;76.30
254;DHT22;590;48.772;8.846;2022-09-12T06:36:32;14.90;75.20
254;DHT22;590;48.772;8.846;2022-09-12T06:39:02;14.90;76.60
254;DHT22;590;48.772;8.846;2022-09-12T06:41:31;14.90;77.50
254;DHT22;590;48.772;8.846;2022-09-12T06:43:59;15.10;78.20
254;DHT22;590;48.772;8.846;2022-09-12T06:46:28;15.20;76.80
254;DHT22;590;48.772;8.846;2022-09-12T06:48:57;15.40;77.50
254;DHT22;590;48.772;8.846;2022-09-12T06:51:28;15.50;76.10
254;DHT22;590;48.772;8.846;2022-09-12T06:53:56;15.60;76.30
254;DHT22;590;48.772;8.846;2022-09-12T06:56:26;15.80;76.30
254;DHT22;590;48.772;8.846;2022-09-12T06:58:55;16.20;76.10
254;DHT22;590;48.772;8.846;2022-09-12T07:01:25;16.50;75.70
254;DHT22;590;48.772;8.846;2022-09-12T07:03:54;16.90;71.50
254;DHT22;590;48.772;8.846;2022-09-12T07:06:27;17.20;68.10
254;DHT22;590;48.772;8.846;2022-09-12T07:08:58;17.40;66.40
254;DHT22;590;48.772;8.846;2022-09-12T07:11:28;17.80;66.60
254;DHT22;590;48.772;8.846;2022-09-12T07:13:58;18.00;63.30
254;DHT22;590;48.772;8.846;2022-09-12T07:16:27;18.30;61.50
254;DHT22;590;48.772;8.846;2022-09-12T07:18:57;18.50;60.20
254;DHT22;590;48.772;8.846;2022-09-12T07:21:28;18.80;60.30
254;DHT22;590;48.772;8.846;2022-09-12T07:23:56;19.00;59.00
254;DHT22;590;48.772;8.846;2022-09-12T07:26:26;19.20;59.40
254;DHT22;590;48.772;8.846;2022-09-12T07:28:55;19.40;56.50
254;DHT22;590;48.772;8.846;2022-09-12T07:31:44;19.50;55.90
254;DHT22;590;48.772;8.846;2022-09-12T07:34:12;19.70;56.40
254;DHT22;590;48.772;8.846;2022-09-12T07:36:41;20.00;54.20
254;DHT22;590;48.772;8.846;2022-09-12T07:39:10;20.30;52.60
254;DHT22;590;48.772;8.846;2022-09-12T07:41:37;20.60;52.00
254;DHT22;590;48.772;8.846;2022-09-12T07:44:05;20.90;48.80
254;DHT22;590;48.772;8.846;2022-09-12T07:46:33;21.00;48.60
254;DHT22;590;48.772;8.846;2022-09-12T07:49:02;21.30;48.60
254;DHT22;590;48.772;8.846;2022-09-12T07:51:30;21.50;45.70
254;DHT22;590;48.772;8.846;2022-09-12T07:53:59;21.60;42.80
254;DHT22;590;48.772;8.846;2022-09-12T07:56:28;21.50;43.20
254;DHT22;590;48.772;8.846;2022-09-12T07:59:02;21.60;44.30
254;DHT22;590;48.772;8.846;2022-09-12T08:01:30;21.70;44.30
254;DHT22;590;48.772;8.846;2022-09-12T08:03:59;21.80;42.10
254;DHT22;590;48.772;8.846;2022-09-12T08:06:28;21.60;42.30
254;DHT22;590;48.772;8.846;2022-09-12T08:08:59;21.40;42.70
254;DHT22;590;48.772;8.846;2022-09-12T08:11:28;21.40;43.00
254;DHT22;590;48.772;8.846;2022-09-12T08:13:56;21.50;42.40
254;DHT22;590;48.772;8.846;2022-09-12T08:16:27;21.70;40.90
254;DHT22;590;48.772;8.846;2022-09-12T08:18:58;21.80;36.80
254;DHT22;590;48.772;8.846;2022-09-12T08:21:28;21.90;36.90
254;DHT22;590;48.772;8.846;2022-09-12T08:23:58;22.20;37.60
254;DHT22;590;48.772;8.846;2022-09-12T08:26:28;22.20;34.70
254;DHT22;590;48.772;8.846;2022-09-12T08:28:56;22.30;33.80
254;DHT22;590;48.772;8.846;2022-09-12T08:31:26;22.20;33.50
254;DHT22;590;48.772;8.846;2022-09-12T08:33:55;22.20;32.80
254;DHT22;590;48.772;8.846;2022-09-12T08:36:25;22.20;34.30
254;DHT22;590;48.772;8.846;2022-09-12T08:38:55;22.30;32.90
254;DHT22;590;48.772;8.846;2022-09-12T08:41:30;22.20;30.20
254;DHT22;590;48.772;8.846;2022-09-12T08:44:35;21.90;29.90
254;DHT22;590;48.772;8.846;2022-09-12T08:47:15;21.70;34.80
254;DHT22;590;48.772;8.846;2022-09-12T08:49:49;21.70;33.10
254;DHT22;590;48.772;8.846;2022-09-12T08:52:23;21.90;33.30
254;DHT22;590;48.772;8.846;2022-09-12T08:54:53;22.20;31.80
254;DHT22;590;48.772;8.846;2022-09-12T08:57:23;22.50;31.80
254;DHT22;590;48.772;8.846;2022-09-12T08:59:51;22.70;29.10
254;DHT22;590;48.772;8.846;2022-09-12T09:02:41;22.90;28.20
254;DHT22;590;48.772;8.846;2022-09-12T09:05:18;23.00;25.50
254;DHT22;590;48.772;8.846;2022-09-12T09:10:46;23.30;26.90
254;DHT22;590;48.772;8.846;2022-09-12T09:13:31;23.60;26.20
254;DHT22;590;48.772;8.846;2022-09-12T09:16:23;23.80;25.40
254;DHT22;590;48.772;8.846;2022-09-12T09:18:53;24.00;24.00
254;DHT22;590;48.772;8.846;2022-09-12T09:21:25;24.10;21.40
254;DHT22;590;48.772;8.846;2022-09-12T09:24:00;24.20;19.20
254;DHT22;590;48.772;8.846;2022-09-12T09:26:38;24.20;18.10
254;DHT22;590;48.772;8.846;2022-09-12T09:29:16;24.30;17.70
254;DHT22;590;48.772;8.846;2022-09-12T09:31:47;24.40;17.80
254;DHT22;590;48.772;8.846;2022-09-12T09:34:19;24.40;16.10
254;DHT22;590;48.772;8.846;2022-09-12T09:36:49;24.50;15.00
254;DHT22;590;48.772;8.846;2022-09-12T09:39:37;24.50;14.30
254;DHT22;590;48.772;8.846;2022-09-12T09:42:20;24.50;14.60
254;DHT22;590;48.772;8.846;2022-09-12T09:45:02;24.60;16.00
254;DHT22;590;48.772;8.846;2022-09-12T09:47:31;24.70;14.50
254;DHT22;590;48.772;8.846;2022-09-12T09:49:59;24.80;13.70
254;DHT22;590;48.772;8.846;2022-09-12T09:52:28;24.90;12.90
254;DHT22;590;48.772;8.846;2022-09-12T09:54:59;24.90;13.50
254;DHT22;590;48.772;8.846;2022-09-12T09:57:50;25.00;12.00
254;DHT22;590;48.772;8.846;2022-09-12T10:00:22;25.10;11.10
254;DHT22;590;48.772;8.846;2022-09-12T10:03:00;25.20;9.60
254;DHT22;590;48.772;8.846;2022-09-12T10:05:32;25.20;10.30
254;DHT22;590;48.772;8.846;2022-09-12T10:08:03;25.30;10.90
254;DHT22;590;48.772;8.846;2022-09-12T10:10:32;25.30;10.20
254;DHT22;590;48.772;8.846;2022-09-12T10:13:08;25.40;10.70
254;DHT22;590;48.772;8.846;2022-09-12T10:15:55;25.50;8.40
254;DHT22;590;48.772;8.846;2022-09-12T10:18:39;25.60;8.30
254;DHT22;590;48.772;8.846;2022-09-12T10:21:23;25.70;8.10
254;DHT22;590;48.772;8.846;2022-09-12T10:23:59;25.70;8.60
254;DHT22;590;48.772;8.846;2022-09-12T10:26:34;25.80;9.40
254;DHT22;590;48.772;8.846;2022-09-12T10:29:13;25.90;9.60
254;DHT22;590;48.772;8.846;2022-09-12T10:31:46;26.00;6.70
254;DHT22;590;48.772;8.846;2022-09-12T10:34:34;26.00;7.40
254;DHT22;590;48.772;8.846;2022-09-12T10:37:08;26.10;6.20
254;DHT22;590;48.772;8.846;2022-09-12T10:39:37;26.10;6.80
254;DHT22;590;48.772;8.846;2022-09-12T10:42:05;26.10;5.70
254;DHT22;590;48.772;8.846;2022-09-12T10:44:34;26.00;6.70
254;DHT22;590;48.772;8.846;2022-09-12T10:47:22;26.00;6.00
254;DHT22;590;48.772;8.846;2022-09-12T10:49:53;26.10;7.00
254;DHT22;590;48.772;8.846;2022-09-12T10:52:48;26.00;4.30
254;DHT22;590;48.772;8.846;2022-09-12T10:55:17;25.70;3.90
254;DHT22;590;48.772;8.846;2022-09-12T10:58:06;25.40;4.30
254;DHT22;590;48.772;8.846;2022-09-12T11:00:40;25.00;4.90
254;DHT22;590;48.772;8.846;2022-09-12T11:03:28;24.80;5.50
254;DHT22;590;48.772;8.846;2022-09-12T11:06:02;24.70;6.20
254;DHT22;590;48.772;8.846;2022-09-12T11:08:47;24.90;6.80
254;DHT22;590;48.772;8.846;2022-09-12T11:11:41;24.90;6.60
254;DHT22;590;48.772;8.846;2022-09-12T11:14:24;25.00;7.10
254;DHT22;590;48.772;8.846;2022-09-12T11:16:58;25.20;6.80
254;DHT22;590;48.772;8.846;2022-09-12T11:19:47;25.30;5.30
254;DHT22;590;48.772;8.846;2022-09-12T11:22:32;25.20;4.70
254;DHT22;590;48.772;8.846;2022-09-12T11:25:22;25.30;5.40
254;DHT22;590;48.772;8.846;2022-09-12T11:28:10;25.40;6.00
254;DHT22;590;48.772;8.846;2022-09-12T11:30:50;25.50;5.40
254;DHT22;590;48.772;8.846;2022-09-12T11:33:33;25.50;6.30
254;DHT22;590;48.772;8.846;2022-09-12T11:36:26;25.60;6.60
254;DHT22;590;48.772;8.846;2022-09-12T11:39:01;25.70;5.40
254;DHT22;590;48.772;8.846;2022-09-12T11:41:31;25.70;4.10
254;DHT22;590;48.772;8.846;2022-09-12T11:44:09;25.70;4.00
254;DHT22;590;48.772;8.846;2022-09-12T11:46:41;25.70;4.70
254;DHT22;590;48.772;8.846;2022-09-12T11:49:21;25.70;4.40
254;DHT22;590;48.772;8.846;2022-09-12T11:51:56;25.80;4.50
254;DHT22;590;48.772;8.846;2022-09-12T11:54:28;25.80;4.20
254;DHT22;590;48.772;8.846;2022-09-12T11:57:07;25.90;4.80
254;DHT22;590;48.772;8.846;2022-09-12T11:59:43;26.10;4.90
254;DHT22;590;48.772;8.846;2022-09-12T12:02:18;26.10;2.50
254;DHT22;590;48.772;8.846;2022-09-12T12:05:04;26.10;3.40
254;DHT22;590;48.772;8.846;2022-09-12T12:07:41;26.20;5.00
254;DHT22;590;48.772;8.846;2022-09-12T12:10:23;26.30;3.20
254;DHT22;590;48.772;8.846;2022-09-12T12:12:54;26.30;2.80
254;DHT22;590;48.772;8.846;2022-09-12T12:15:23;26.30;3.10
254;DHT22;590;48.772;8.846;2022-09-12T12:18:07;26.20;2.20
254;DHT22;590;48.772;8.846;2022-09-12T12:20:42;26.10;2.20
254;DHT22;590;48.772;8.846;2022-09-12T12:23:24;26.00;2.30
254;DHT22;590;48.772;8.846;2022-09-12T12:25:54;25.90;2.20
254;DHT22;590;48.772;8.846;2022-09-12T12:28:57;25.80;2.80
254;DHT22;590;48.772;8.846;2022-09-12T12:31:25;25.60;1.00
254;DHT22;590;48.772;8.846;2022-09-12T12:34:01;25.40;1.10
254;DHT22;590;48.772;8.846;2022-09-12T12:36:40;25.30;1.60
254;DHT22;590;48.772;8.846;2022-09-12T12:46:06;25.20;1.00
254;DHT22;590;48.772;8.846;2022-09-12T12:48:58;25.20;1.00
254;DHT22;590;48.772;8.846;2022-09-12T12:51:54;25.20;1.00
254;DHT22;590;48.772;8.846;2022-09-12T12:54:54;25.30;1.00
254;DHT22;590;48.772;8.846;2022-09-12T12:57:45;25.30;1.00
254;DHT22;590;48.772;8.846;2022-09-12T13:00:28;25.20;1.00
254;DHT22;590;48.772;8.846;2022-09-12T13:03:04;25.20;1.00
254;DHT22;590;48.772;8.846;2022-09-12T13:05:38;25.30;2.50
254;DHT22;590;48.772;8.846;2022-09-12T13:08:09;25.50;2.10
254;DHT22;590;48.772;8.846;2022-09-12T13:10:48;25.60;1.00
254;DHT22;590;48.772;8.846;2022-09-12T13:13:22;25.60;1.00
254;DHT22;590;48.772;8.846;2022-09-12T13:15:52;25.60;1.00
254;DHT22;590;48.772;8.846;2022-09-12T13:18:26;25.60;1.00
254;DHT22;590;48.772;8.846;2022-09-12T13:21:03;25.60;1.00
254;DHT22;590;48.772;8.846;2022-09-12T13:23:34;25.70;1.00
254;DHT22;590;48.772;8.846;2022-09-12T13:26:03;25.70;1.00
254;DHT22;590;48.772;8.846;2022-09-12T13:28:37;25.60;1.00
254;DHT22;590;48.772;8.846;2022-09-12T13:31:11;25.60;1.00
254;DHT22;590;48.772;8.846;2022-09-12T13:33:45;25.60;1.00
254;DHT22;590;48.772;8.846;2022-09-12T13:39:25;25.80;1.60
254;DHT22;590;48.772;8.846;2022-09-12T13:45:03;25.90;1.00
254;DHT22;590;48.772;8.846;2022-09-12T13:47:34;25.90;1.00
254;DHT22;590;48.772;8.846;2022-09-12T13:50:07;25.80;1.00
254;DHT22;590;48.772;8.846;2022-09-12T13:52:38;25.80;1.00
254;DHT22;590;48.772;8.846;2022-09-12T13:55:22;25.80;1.00
254;DHT22;590;48.772;8.846;2022-09-12T13:57:57;25.80;1.00
254;DHT22;590;48.772;8.846;2022-09-12T14:00:25;25.80;1.00
254;DHT22;590;48.772;8.846;2022-09-12T14:02:54;25.90;1.00
254;DHT22;590;48.772;8.846;2022-09-12T14:05:38;25.80;1.00
254;DHT22;590;48.772;8.846;2022-09-12T14:08:11;25.80;1.00
254;DHT22;590;48.772;8.846;2022-09-12T14:10:42;25.80;1.00
254;DHT22;590;48.772;8.846;2022-09-12T14:13:14;25.80;1.00
254;DHT22;590;48.772;8.846;2022-09-12T14:15:44;25.80;1.00
254;DHT22;590;48.772;8.846;2022-09-12T14:18:22;25.70;1.00
254;DHT22;590;48.772;8.846;2022-09-12T14:20:53;25.70;1.00
254;DHT22;590;48.772;8.846;2022-09-12T14:23:27;25.60;1.00
254;DHT22;590;48.772;8.846;2022-09-12T14:25:57;25.60;1.00
254;DHT22;590;48.772;8.846;2022-09-12T14:28:26;25.50;1.00
254;DHT22;590;48.772;8.846;2022-09-12T14:31:00;25.40;1.00
254;DHT22;590;48.772;8.846;2022-09-12T14:33:32;25.40;1.00
254;DHT22;590;48.772;8.846;2022-09-12T14:36:15;25.30;1.00
254;DHT22;590;48.772;8.846;2022-09-12T14:38:48;25.30;1.00
254;DHT22;590;48.772;8.846;2022-09-12T14:41:25;25.20;1.00
254;DHT22;590;48.772;8.846;2022-09-12T14:43:56;25.20;1.00
254;DHT22;590;48.772;8.846;2022-09-12T14:46:29;25.20;1.00
254;DHT22;590;48.772;8.846;2022-09-12T14:48:59;25.20;1.80
254;DHT22;590;48.772;8.846;2022-09-12T14:51:33;25.10;1.10
254;DHT22;590;48.772;8.846;2022-09-12T14:54:02;25.00;1.00
254;DHT22;590;48.772;8.846;2022-09-12T14:56:39;24.90;1.00
254;DHT22;590;48.772;8.846;2022-09-12T14:59:26;24.80;1.00
254;DHT22;590;48.772;8.846;2022-09-12T15:02:20;24.70;1.00
254;DHT22;590;48.772;8.846;2022-09-12T15:04:50;24.60;1.00
254;DHT22;590;48.772;8.846;2022-09-12T15:07:28;24.50;1.30
254;DHT22;590;48.772;8.846;2022-09-12T15:10:00;24.40;1.00
254;DHT22;590;48.772;8.846;2022-09-12T15:12:28;24.40;1.80
254;DHT22;590;48.772;8.846;2022-09-12T15:14:59;24.40;1.00
254;DHT22;590;48.772;8.846;2022-09-12T15:17:29;24.30;1.10
254;DHT22;590;48.772;8.846;2022-09-12T15:19:58;24.30;1.00
254;DHT22;590;48.772;8.846;2022-09-12T15:22:29;24.30;1.00
254;DHT22;590;48.772;8.846;2022-09-12T15:24:58;24.20;1.00
254;DHT22;590;48.772;8.846;2022-09-12T15:27:29;24.20;1.60
254;DHT22;590;48.772;8.846;2022-09-12T15:29:57;24.20;1.60
254;DHT22;590;48.772;8.846;2022-09-12T15:32:27;24.20;1.20
254;DHT22;590;48.772;8.846;2022-09-12T15:34:58;24.20;1.50
254;DHT22;590;48.772;8.846;2022-09-12T15:37:26;24.20;1.60
254;DHT22;590;48.772;8.846;2022-09-12T15:39:56;24.20;2.20
254;DHT22;590;48.772;8.846;2022-09-12T15:42:27;24.20;2.10
254;DHT22;590;48.772;8.846;2022-09-12T15:45:14;24.20;3.10
254;DHT22;590;48.772;8.846;2022-09-12T15:47:44;24.20;3.30
254;DHT22;590;48.772;8.846;2022-09-12T15:50:12;24.20;3.50
254;DHT22;590;48.772;8.846;2022-09-12T15:52:42;24.20;3.40
254;DHT22;590;48.772;8.846;2022-09-12T15:55:16;24.20;3.40
254;DHT22;590;48.772;8.846;2022-09-12T15:57:45;24.20;2.90
254;DHT22;590;48.772;8.846;2022-09-12T16:00:14;24.20;1.80
254;DHT22;590;48.772;8.846;2022-09-12T16:02:43;24.20;1.60
254;DHT22;590;48.772;8.846;2022-09-12T16:05:14;24.10;2.60
254;DHT22;590;48.772;8.846;2022-09-12T16:07:43;24.10;2.40
254;DHT22;590;48.772;8.846;2022-09-12T16:10:18;24.10;2.70
254;DHT22;590;48.772;8.846;2022-09-12T16:12:46;24.00;3.20
254;DHT22;590;48.772;8.846;2022-09-12T16:15:16;24.00;3.30
254;DHT22;590;48.772;8.846;2022-09-12T16:17:44;24.00;3.10
254;DHT22;590;48.772;8.846;2022-09-12T16:20:12;23.90;3.20
254;DHT22;590;48.772;8.846;2022-09-12T16:22:40;23.90;3.10
254;DHT22;590;48.772;8.846;2022-09-12T16:25:09;23.90;3.50
254;DHT22;590;48.772;8.846;2022-09-12T16:27:38;23.90;2.90
254;DHT22;590;48.772;8.846;2022-09-12T16:30:08;23.80;3.50
254;DHT22;590;48.772;8.846;2022-09-12T16:32:36;23.80;3.80
254;DHT22;590;48.772;8.846;2022-09-12T16:35:05;23.80;3.80
254;DHT22;590;48.772;8.846;2022-09-12T16:37:33;23.70;4.60
254;DHT22;590;48.772;8.846;2022-09-12T16:40:02;23.70;5.20
254;DHT22;590;48.772;8.846;2022-09-12T16:42:30;23.70;5.80
254;DHT22;590;48.772;8.846;2022-09-12T16:45:11;23.60;5.70
254;DHT22;590;48.772;8.846;2022-09-12T16:47:39;23.60;5.90
254;DHT22;590;48.772;8.846;2022-09-12T16:50:07;23.50;5.70
254;DHT22;590;48.772;8.846;2022-09-12T16:52:35;23.50;5.50
254;DHT22;590;48.772;8.846;2022-09-12T16:55:04;23.40;5.40
254;DHT22;590;48.772;8.846;2022-09-12T16:57:32;23.40;5.50
254;DHT22;590;48.772;8.846;2022-09-12T17:00:01;23.30;5.80
254;DHT22;590;48.772;8.846;2022-09-12T17:02:31;23.30;5.90
254;DHT22;590;48.772;8.846;2022-09-12T17:04:59;23.20;5.80
254;DHT22;590;48.772;8.846;2022-09-12T17:07:27;23.20;5.70
254;DHT22;590;48.772;8.846;2022-09-12T17:09:55;23.10;5.90
254;DHT22;590;48.772;8.846;2022-09-12T17:12:23;23.10;6.50
254;DHT22;590;48.772;8.846;2022-09-12T17:15:07;23.00;7.00
254;DHT22;590;48.772;8.846;2022-09-12T17:17:37;22.90;8.80
254;DHT22;590;48.772;8.846;2022-09-12T17:20:05;22.80;11.40
254;DHT22;590;48.772;8.846;2022-09-12T17:22:33;22.80;13.70
254;DHT22;590;48.772;8.846;2022-09-12T17:25:01;22.70;15.90
254;DHT22;590;48.772;8.846;2022-09-12T17:27:30;22.50;17.80
254;DHT22;590;48.772;8.846;2022-09-12T17:29:58;22.40;18.40
254;DHT22;590;48.772;8.846;2022-09-12T17:32:26;22.30;20.20
254;DHT22;590;48.772;8.846;2022-09-12T17:34:55;22.10;20.60
254;DHT22;590;48.772;8.846;2022-09-12T17:37:23;22.00;20.70
254;DHT22;590;48.772;8.846;2022-09-12T17:39:51;21.90;20.30